createdAt,value
2022-09-14T00:02:35.000Z,9.02
2022-09-14T00:07:34.000Z,8.72
2022-09-14T00:12:35.000Z,8.14
2022-09-14T00:17:35.000Z,7.68
2022-09-14T00:22:35.000Z,7.68
2022-09-14T00:27:35.000Z,7.87
2022-09-14T00:32:35.000Z,7.38
2022-09-14T00:37:34.000Z,7.88
2022-09-14T00:42:35.000Z,7.59
2022-09-14T00:47:35.000Z,7.16
2022-09-14T00:52:35.000Z,7.31
2022-09-14T00:57:34.000Z,7.17
2022-09-14T01:02:35.000Z,6.59
2022-09-14T01:07:35.000Z,6.91
2022-09-14T01:12:35.000Z,6.88
2022-09-14T01:17:34.000Z,6.96
2022-09-14T01:22:34.000Z,6.81
2022-09-14T01:37:35.000Z,6.22
2022-09-14T01:42:34.000Z,5.84
2022-09-14T01:47:34.000Z,5.97
2022-09-14T01:52:34.000Z,5.64
2022-09-14T01:57:34.000Z,5.01
2022-09-14T02:02:35.000Z,5.1
2022-09-14T02:07:34.000Z,4.58
2022-09-14T02:12:34.000Z,4.75
2022-09-14T02:17:34.000Z,5.14
2022-09-14T02:22:34.000Z,4.67
2022-09-14T02:27:35.000Z,5.05
2022-09-14T02:32:34.000Z,5.06
2022-09-14T02:37:34.000Z,4.23
2022-09-14T02:42:35.000Z,4.39
2022-09-14T02:47:34.000Z,4.24
2022-09-14T02:52:35.000Z,4.24
2022-09-14T02:57:34.000Z,4.43
2022-09-14T03:02:35.000Z,4.52
2022-09-14T03:07:35.000Z,4.76
2022-09-14T03:12:35.000Z,4.68
2022-09-14T03:17:35.000Z,5.13
2022-09-14T03:22:35.000Z,5.3
2022-09-14T03:27:35.000Z,6.08
2022-09-14T03:32:34.000Z,6.5
2022-09-14T03:37:35.000Z,6.69
2022-09-14T03:42:34.000Z,7.56
2022-09-14T03:47:35.000Z,6.78
2022-09-14T03:52:35.000Z,7.64
2022-09-14T03:57:34.000Z,7.27
2022-09-14T04:02:35.000Z,6.67
2022-09-14T04:07:35.000Z,6.67
2022-09-14T04:12:35.000Z,6.67
2022-09-14T04:17:35.000Z,6.18
2022-09-14T04:22:34.000Z,6.68
2022-09-14T04:27:35.000Z,6.91
2022-09-14T04:32:35.000Z,6.48
2022-09-14T04:37:34.000Z,6.95
2022-09-14T04:42:34.000Z,7.08
2022-09-14T04:47:34.000Z,7.36
2022-09-14T04:52:35.000Z,6.8
2022-09-14T04:57:35.000Z,8.25
2022-09-14T05:02:35.000Z,8.36
2022-09-14T05:07:34.000Z,8.15
2022-09-14T05:12:34.000Z,8.3
2022-09-14T05:17:35.000Z,8.37
2022-09-14T05:22:34.000Z,8.37
2022-09-14T05:27:35.000Z,8.13
2022-09-14T05:32:35.000Z,8.07
2022-09-14T05:37:35.000Z,8.09
2022-09-14T05:42:35.000Z,7.77
2022-09-14T05:47:35.000Z,7.69
2022-09-14T05:52:34.000Z,7.52
2022-09-14T05:57:35.000Z,8.05
2022-09-14T06:02:35.000Z,8.08
2022-09-14T06:07:34.000Z,8.35
2022-09-14T06:12:35.000Z,8.44
2022-09-14T06:17:35.000Z,8.19
2022-09-14T06:22:34.000Z,8.88
2022-09-14T06:27:35.000Z,8.67
2022-09-14T06:32:34.000Z,8.55
2022-09-14T06:37:35.000Z,8.55
2022-09-14T06:42:35.000Z,8.65
2022-09-14T06:47:35.000Z,8.85
2022-09-14T06:52:34.000Z,8.78
2022-09-14T06:57:35.000Z,7.89
2022-09-14T07:02:35.000Z,7.14
2022-09-14T07:07:34.000Z,6.93
2022-09-14T07:12:34.000Z,7.16
2022-09-14T07:17:35.000Z,7.83
2022-09-14T07:22:34.000Z,7.46
2022-09-14T07:27:35.000Z,7.36
2022-09-14T07:32:35.000Z,7.52
2022-09-14T07:37:34.000Z,6.86
2022-09-14T07:42:35.000Z,6.51
2022-09-14T07:47:35.000Z,6.69
2022-09-14T07:52:34.000Z,6.34
2022-09-14T07:58:04.000Z,6.82
2022-09-14T08:02:34.000Z,6.82
2022-09-14T08:07:34.000Z,6.51
2022-09-14T08:12:34.000Z,6.3
2022-09-14T08:17:35.000Z,6.57
2022-09-14T08:22:35.000Z,6.75
2022-09-14T08:27:35.000Z,5.81
2022-09-14T08:32:35.000Z,6.58
2022-09-14T08:37:34.000Z,6.27
2022-09-14T08:42:35.000Z,7.41
2022-09-14T08:47:34.000Z,8.48
2022-09-14T08:52:35.000Z,7.76
2022-09-14T08:57:35.000Z,12.13
2022-09-14T09:02:35.000Z,15.82
2022-09-14T09:07:35.000Z,8.36
2022-09-14T09:12:35.000Z,8.36
2022-09-14T09:17:35.000Z,7.63
2022-09-14T09:22:34.000Z,8.64
2022-09-14T09:27:35.000Z,10.17
2022-09-14T09:32:35.000Z,9.33
2022-09-14T09:37:35.000Z,12.16
2022-09-14T09:42:35.000Z,10.63
2022-09-14T09:47:35.000Z,9.29
2022-09-14T09:52:35.000Z,9.45
2022-09-14T09:57:34.000Z,8.86
2022-09-14T10:02:35.000Z,13.46
2022-09-14T10:07:34.000Z,10.06
2022-09-14T10:12:34.000Z,9.87
2022-09-14T10:17:34.000Z,9.45
2022-09-14T10:22:36.000Z,9.45
2022-09-14T10:32:35.000Z,7.08
2022-09-14T10:37:35.000Z,7.08
2022-09-14T10:42:35.000Z,6.73
2022-09-14T10:52:35.000Z,6.82
2022-09-14T10:57:34.000Z,6.93
2022-09-14T11:02:35.000Z,6.94
2022-09-14T11:07:35.000Z,7.27
2022-09-14T11:12:35.000Z,6.97
2022-09-14T11:17:34.000Z,7.11
2022-09-14T11:22:35.000Z,6.39
2022-09-14T11:27:34.000Z,6.59
2022-09-14T11:32:34.000Z,7.01
2022-09-14T11:37:35.000Z,8.03
2022-09-14T11:42:35.000Z,10.04
2022-09-14T11:47:35.000Z,10.04
2022-09-14T11:52:34.000Z,12.13
2022-09-14T11:57:35.000Z,9.22
2022-09-14T12:02:34.000Z,9.01
2022-09-14T12:07:34.000Z,9.55
2022-09-14T12:12:35.000Z,10.27
2022-09-14T12:27:34.000Z,9.19
2022-09-14T12:42:35.000Z,10.36
2022-09-14T12:47:35.000Z,12.33
2022-09-14T12:52:35.000Z,13.77
2022-09-14T12:57:35.000Z,13.18
2022-09-14T13:02:35.000Z,13.83
2022-09-14T13:07:35.000Z,14.55
2022-09-14T13:12:35.000Z,13.3
2022-09-14T13:17:35.000Z,12.38
2022-09-14T13:22:35.000Z,11.03
2022-09-14T13:32:35.000Z,10.5
2022-09-14T13:37:35.000Z,9
2022-09-14T13:42:35.000Z,9
2022-09-14T13:47:35.000Z,9.28
2022-09-14T13:53:00.000Z,10.53
2022-09-14T13:57:35.000Z,10.42
2022-09-14T14:02:34.000Z,10.19
2022-09-14T14:07:35.000Z,10.64
2022-09-14T14:12:34.000Z,9.94
2022-09-14T14:17:35.000Z,9.97
2022-09-14T14:22:35.000Z,10.34
2022-09-14T14:27:35.000Z,10.76
2022-09-14T14:32:35.000Z,9.55
2022-09-14T14:37:35.000Z,9.09
2022-09-14T14:42:35.000Z,9.84
2022-09-14T14:47:35.000Z,9.43
2022-09-14T14:52:34.000Z,12.17
2022-09-14T14:57:35.000Z,10.66
2022-09-14T15:02:35.000Z,10.66
2022-09-14T15:07:35.000Z,11.42
2022-09-14T15:12:34.000Z,12.33
2022-09-14T15:17:35.000Z,14.84
2022-09-14T15:22:35.000Z,16.89
2022-09-14T15:27:34.000Z,17.21
2022-09-14T15:32:35.000Z,17.23
2022-09-14T15:37:35.000Z,13.54
2022-09-14T15:42:35.000Z,11.41
2022-09-14T15:47:35.000Z,11.79
2022-09-14T15:52:34.000Z,11.74
2022-09-14T15:57:35.000Z,12.6
2022-09-14T16:02:35.000Z,12.59
2022-09-14T16:07:34.000Z,11.96
2022-09-14T16:12:35.000Z,11.96
2022-09-14T16:17:34.000Z,12.16
2022-09-14T16:22:35.000Z,12.26
2022-09-14T16:27:35.000Z,11.4
2022-09-14T16:32:35.000Z,11.41
2022-09-14T16:37:34.000Z,12.42
2022-09-14T16:42:35.000Z,11.95
2022-09-14T16:47:35.000Z,12.35
2022-09-14T16:52:35.000Z,12.87
2022-09-14T16:57:34.000Z,12.83
2022-09-14T17:02:35.000Z,13.31
2022-09-14T17:07:35.000Z,15.1
2022-09-14T17:12:34.000Z,13.46
2022-09-14T17:17:35.000Z,13.24
2022-09-14T17:22:35.000Z,13.24
2022-09-14T17:27:35.000Z,13.61
2022-09-14T17:32:35.000Z,14.28
2022-09-14T17:37:35.000Z,14.52
2022-09-14T17:42:34.000Z,12.44
2022-09-14T17:47:34.000Z,14.13
2022-09-14T17:52:35.000Z,13.86
2022-09-14T17:57:35.000Z,13.92
2022-09-14T18:02:35.000Z,18.39
2022-09-14T18:07:35.000Z,18.59
2022-09-14T18:12:34.000Z,19.72
2022-09-14T18:17:35.000Z,17.47
2022-09-14T18:22:34.000Z,19.48
2022-09-14T18:27:35.000Z,18.41
2022-09-14T18:32:35.000Z,18.41
2022-09-14T18:37:35.000Z,20.34
2022-09-14T18:42:35.000Z,19.53
2022-09-14T18:47:35.000Z,17.18
2022-09-14T18:52:35.000Z,17.15
2022-09-14T18:57:35.000Z,17.9
2022-09-14T19:02:35.000Z,17.41
2022-09-14T19:07:34.000Z,17.34
2022-09-14T19:12:34.000Z,19.57
2022-09-14T19:17:35.000Z,20.36
2022-09-14T19:22:35.000Z,19.47
2022-09-14T19:27:34.000Z,18.93
2022-09-14T19:32:35.000Z,18.61
2022-09-14T19:37:35.000Z,18.43
2022-09-14T19:42:35.000Z,18.33
2022-09-14T19:52:34.000Z,17.28
2022-09-14T19:57:35.000Z,17.95
2022-09-14T20:02:35.000Z,18.31
2022-09-14T20:07:35.000Z,18.52
2022-09-14T20:12:35.000Z,20.19
2022-09-14T20:17:35.000Z,20.92
2022-09-14T20:22:35.000Z,19.79
2022-09-14T20:27:35.000Z,19.79
2022-09-14T20:32:34.000Z,19.23
2022-09-14T20:37:35.000Z,18.97
2022-09-14T20:42:35.000Z,22.7
2022-09-14T20:47:35.000Z,20.09
2022-09-14T20:52:35.000Z,18.94
2022-09-14T20:57:35.000Z,19.81
2022-09-14T21:02:34.000Z,20.14
2022-09-14T21:07:35.000Z,18.77
2022-09-14T21:12:34.000Z,18.01
2022-09-14T21:17:34.000Z,18.47
2022-09-14T21:22:34.000Z,17.52
2022-09-14T21:27:34.000Z,16.66
2022-09-14T21:32:35.000Z,16.32
2022-09-14T21:37:35.000Z,16.54
2022-09-14T21:47:35.000Z,20.14
2022-09-14T21:52:34.000Z,15.61
2022-09-14T21:57:35.000Z,15.93
2022-09-14T22:02:35.000Z,15.18
2022-09-14T22:07:35.000Z,15.79
2022-09-14T22:12:35.000Z,16.05
2022-09-14T22:17:35.000Z,16.75
2022-09-14T22:22:35.000Z,16.58
2022-09-14T22:27:34.000Z,15.93
2022-09-14T22:32:35.000Z,16.31
2022-09-14T22:37:34.000Z,15.51
2022-09-14T22:42:35.000Z,15.82
2022-09-14T22:47:34.000Z,15.62
2022-09-14T22:52:34.000Z,15.62
2022-09-14T22:57:34.000Z,15.47
2022-09-14T23:02:34.000Z,16.39
2022-09-14T23:07:34.000Z,15.98
2022-09-14T23:12:35.000Z,17.77
2022-09-14T23:17:35.000Z,15.68
2022-09-14T23:22:35.000Z,14.89
2022-09-14T23:27:34.000Z,22.58
2022-09-14T23:32:35.000Z,16.67
2022-09-14T23:37:35.000Z,17.96
2022-09-14T23:42:34.000Z,14.55
2022-09-14T23:47:35.000Z,13.29
2022-09-14T23:52:35.000Z,13.84
2022-09-14T23:57:35.000Z,14.08
